Time;durP1;ratioP1;P1;durP2;ratioP2;P2;SDS_P1;SDS_P2;PMS_P1;PMS_P2;Temp;Humidity;BMP_temperature;BMP_pressure;BME280_temperature;BME280_humidity;BME280_pressure;Samples;Min_cycle;Max_cycle;Signal;HPM_P1;HPM_P2
2024/03/14 00:02:45;;;;;;;18.67;12.43;;;;;;;10.75;93.52;100351.16;10145405;29;20066;-80
2024/03/14 00:07:48;;;;;;;15.82;11.57;;;;;;;10.74;93.22;100354.78;10169567;29;20051;-80
2024/03/14 00:12:51;;;;;;;17.10;11.45;;;;;;;10.67;93.45;100345.56;10147595;29;20134;-80
2024/03/14 00:17:54;;;;;;;14.75;10.90;;;;;;;10.77;92.31;100359.91;10159409;29;20123;-80
2024/03/14 00:22:58;;;;;;;17.60;11.30;;;;;;;10.80;92.23;100353.44;10179960;29;20134;-80
2024/03/14 00:28:01;;;;;;;17.35;11.45;;;;;;;10.75;92.01;100347.59;10178201;29;20051;-79
2024/03/14 00:33:06;;;;;;;17.92;11.00;;;;;;;10.76;91.76;100349.31;10185938;29;20040;-80
2024/03/14 00:38:09;;;;;;;14.55;10.35;;;;;;;10.77;91.36;100351.00;10150082;29;20067;-81
2024/03/14 00:43:13;;;;;;;18.42;11.55;;;;;;;10.78;90.94;100345.50;10155640;29;20048;-80
2024/03/14 00:48:16;;;;;;;13.85;10.55;;;;;;;10.79;90.79;100336.47;10164063;29;20060;-80
2024/03/14 00:53:20;;;;;;;14.75;10.38;;;;;;;10.76;90.70;100339.41;10150361;29;20127;-81
2024/03/14 00:58:23;;;;;;;13.25;10.15;;;;;;;10.73;90.70;100342.34;10148040;29;20051;-82
2024/03/14 01:03:26;;;;;;;16.55;10.27;;;;;;;10.36;93.42;100344.50;10134957;29;20059;-81
2024/03/14 01:08:29;;;;;;;16.65;12.00;;;;;;;10.61;91.48;100340.66;10139174;29;20048;-81
2024/03/14 01:13:32;;;;;;;15.27;10.70;;;;;;;10.54;91.35;100334.94;10126676;29;20451;-80
2024/03/14 01:18:35;;;;;;;17.67;11.70;;;;;;;10.73;90.31;100333.44;10153223;29;20054;-80
2024/03/14 01:23:38;;;;;;;18.15;10.38;;;;;;;10.41;92.61;100331.53;10148392;29;20056;-81
2024/03/14 01:28:42;;;;;;;16.02;11.23;;;;;;;10.67;91.22;100328.56;10150440;29;20060;-81
2024/03/14 01:33:45;;;;;;;16.13;11.02;;;;;;;10.59;92.06;100327.38;10136839;29;21034;-81
2024/03/14 01:38:48;;;;;;;18.52;11.75;;;;;;;10.68;91.52;100324.91;10149215;29;20056;-81
2024/03/14 01:43:57;;;;;;;17.23;11.38;;;;;;;10.46;92.24;100315.91;10159413;29;20154;-80
2024/03/14 01:49:01;;;;;;;18.60;11.35;;;;;;;10.45;92.56;100322.28;10137742;29;20114;-81
2024/03/14 01:54:05;;;;;;;17.10;11.63;;;;;;;10.61;91.90;100319.16;10140262;29;20086;-81
2024/03/14 01:59:08;;;;;;;20.05;13.25;;;;;;;10.46;92.57;100315.91;10140330;29;20107;-81
2024/03/14 02:04:12;;;;;;;19.30;11.75;;;;;;;10.50;91.58;100306.63;10128329;29;20523;-81
2024/03/14 02:09:17;;;;;;;17.25;12.00;;;;;;;10.60;91.22;100307.56;10158795;29;20063;-81
2024/03/14 02:14:20;;;;;;;18.42;12.10;;;;;;;10.52;91.00;100306.50;10155824;29;20060;-81
2024/03/14 02:19:23;;;;;;;18.45;12.10;;;;;;;10.56;90.62;100298.06;10140424;29;20052;-81
2024/03/14 02:24:27;;;;;;;21.85;11.60;;;;;;;10.57;90.53;100290.88;10141662;29;20070;-82
2024/03/14 02:29:30;;;;;;;20.23;12.15;;;;;;;10.31;91.58;100291.19;10139310;29;20048;-81
2024/03/14 02:34:34;;;;;;;17.33;12.32;;;;;;;10.47;91.11;100288.06;10159894;29;20052;-81
2024/03/14 02:39:37;;;;;;;17.55;11.82;;;;;;;10.49;90.64;100274.53;10136923;29;20059;-81
2024/03/14 02:44:40;;;;;;;16.98;12.02;;;;;;;10.56;90.00;100265.00;10136016;29;20535;-81
2024/03/14 02:49:43;;;;;;;19.13;10.77;;;;;;;10.44;90.07;100268.69;10159579;29;20051;-79
2024/03/14 02:54:46;;;;;;;15.80;11.02;;;;;;;10.46;90.04;100267.59;10131607;29;20054;-81
2024/03/14 02:59:50;;;;;;;18.67;12.40;;;;;;;10.40;90.47;100270.78;10132363;29;20051;-81
2024/03/14 03:04:54;;;;;;;17.80;12.10;;;;;;;10.40;90.28;100270.78;10138635;29;20044;-81
2024/03/14 03:09:57;;;;;;;23.30;12.18;;;;;;;10.25;91.26;100264.81;10151906;29;20176;-81
2024/03/14 03:15:00;;;;;;;19.25;11.95;;;;;;;10.12;92.06;100258.72;10141483;29;20051;-80
2024/03/14 03:20:09;;;;;;;21.02;12.25;;;;;;;10.26;91.09;100263.00;10137703;29;20058;-82
2024/03/14 03:25:14;;;;;;;24.23;12.38;;;;;;;10.34;90.14;100258.72;10158973;29;20051;-82
2024/03/14 03:30:17;;;;;;;19.23;12.60;;;;;;;10.39;89.79;100253.81;10137565;29;20107;-81
2024/03/14 03:35:21;;;;;;;23.85;12.38;;;;;;;10.21;91.32;100262.53;10168510;29;20051;-81
2024/03/14 03:40:35;;;;;;;22.60;12.60;;;;;;;10.20;91.45;100255.44;10178714;29;21254;-81
2024/03/14 03:45:39;;;;;;;20.92;12.65;;;;;;;10.13;92.31;100247.03;10156390;29;20052;-81
2024/03/14 03:50:42;;;;;;;21.92;13.13;;;;;;;10.10;92.43;100240.09;10159541;29;20075;-80
2024/03/14 03:55:45;;;;;;;20.23;13.68;;;;;;;10.16;92.02;100236.03;10133139;29;20060;-80
2024/03/14 04:00:52;;;;;;;23.08;13.45;;;;;;;9.99;93.15;100242.78;10127353;29;20052;-81
2024/03/14 04:05:59;;;;;;;20.77;13.93;;;;;;;10.02;94.11;100241.69;10146594;29;20095;-81
2024/03/14 04:11:02;;;;;;;21.77;13.18;;;;;;;10.00;93.11;100239.13;10156196;29;20047;-82
2024/03/14 04:16:05;;;;;;;20.98;13.02;;;;;;;10.15;92.70;100229.84;10151140;29;20048;-81
2024/03/14 04:21:14;;;;;;;21.85;14.23;;;;;;;10.41;90.60;100231.34;10125423;29;20047;-81
2024/03/14 04:26:18;;;;;;;23.25;13.88;;;;;;;10.22;91.64;100226.63;10142960;29;20051;-82
2024/03/14 04:31:21;;;;;;;21.75;14.70;;;;;;;10.29;91.23;100230.53;10135440;29;20694;-80
2024/03/14 04:36:24;;;;;;;28.40;14.90;;;;;;;10.25;91.84;100229.91;10153660;29;21319;-81
2024/03/14 04:41:28;;;;;;;20.98;13.00;;;;;;;10.21;91.16;100239.22;10149589;29;20091;-81
2024/03/14 04:46:33;;;;;;;21.48;13.90;;;;;;;10.05;93.18;100238.75;10142288;29;20047;-82
2024/03/14 04:51:36;;;;;;;22.38;14.13;;;;;;;10.24;90.99;100233.59;10130826;29;20079;-81
2024/03/14 04:56:39;;;;;;;22.70;14.65;;;;;;;10.28;91.08;100235.03;10140879;29;20132;-80
2024/03/14 05:01:42;;;;;;;24.17;14.15;;;;;;;10.27;91.33;100230.66;10150962;29;20047;-81
2024/03/14 05:06:46;;;;;;;21.55;14.82;;;;;;;10.30;90.80;100237.59;10166379;29;20051;-81
2024/03/14 05:11:50;;;;;;;22.17;14.80;;;;;;;10.52;89.28;100234.00;10146659;29;20427;-82
2024/03/14 05:16:53;;;;;;;22.90;15.35;;;;;;;10.41;90.32;100234.03;10139892;29;20048;-80
2024/03/14 05:21:56;;;;;;;25.10;14.13;;;;;;;10.43;89.82;100240.13;10128024;29;20051;-80
2024/03/14 05:26:59;;;;;;;20.27;14.13;;;;;;;10.45;90.06;100230.97;10170479;29;20131;-80
2024/03/14 05:32:03;;;;;;;23.25;13.88;;;;;;;10.37;90.69;100239.66;10179177;29;20052;-81
2024/03/14 05:37:07;;;;;;;20.63;14.32;;;;;;;10.47;90.27;100242.41;10182223;29;20056;-81
2024/03/14 05:42:12;;;;;;;21.98;13.23;;;;;;;10.47;89.79;100233.50;10152268;29;20136;-82
2024/03/14 05:47:16;;;;;;;24.60;12.68;;;;;;;10.32;90.37;100236.50;10142990;29;20044;-81
2024/03/14 05:52:19;;;;;;;19.02;13.10;;;;;;;10.40;90.31;100241.25;10176750;29;20102;-82
2024/03/14 05:57:22;;;;;;;19.30;13.20;;;;;;;10.55;89.18;100233.72;10153383;29;20044;-81
2024/03/14 06:02:25;;;;;;;19.52;13.00;;;;;;;10.55;89.06;100234.56;10156161;29;20052;-80
2024/03/14 06:07:28;;;;;;;19.23;12.68;;;;;;;10.47;89.32;100234.38;10160350;29;20051;-81
2024/03/14 06:12:31;;;;;;;22.35;12.73;;;;;;;10.57;88.96;100232.63;10163222;29;20094;-81
2024/03/14 06:17:35;;;;;;;22.42;13.40;;;;;;;10.61;88.72;100225.16;10160317;29;20643;-80
2024/03/14 06:22:39;;;;;;;21.33;13.35;;;;;;;10.67;87.97;100231.84;10155181;29;20053;-80
2024/03/14 06:27:42;;;;;;;20.65;12.82;;;;;;;10.75;87.59;100230.25;10136486;29;20048;-81
2024/03/14 06:32:46;;;;;;;24.42;14.75;;;;;;;10.71;87.73;100227.94;10150933;29;20059;-81
2024/03/14 06:37:51;;;;;;;20.55;13.07;;;;;;;10.77;86.72;100239.00;10148913;29;20047;-81
2024/03/14 06:42:55;;;;;;;18.55;11.32;;;;;;;10.56;87.68;100236.31;10161408;29;20600;-80
2024/03/14 06:47:59;;;;;;;18.00;13.07;;;;;;;10.90;86.17;100235.28;10144276;29;20079;-81
2024/03/14 06:53:02;;;;;;;20.40;13.13;;;;;;;10.98;85.12;100235.50;10143380;29;20051;-80
2024/03/14 06:58:05;;;;;;;19.23;12.77;;;;;;;10.95;85.38;100246.50;10160897;29;20138;-81
2024/03/14 07:03:09;;;;;;;19.13;12.60;;;;;;;10.98;85.80;100244.41;10137480;29;20050;-82
2024/03/14 07:08:12;;;;;;;17.63;12.15;;;;;;;10.93;85.43;100238.56;10124336;29;20044;-81
2024/03/14 07:13:15;;;;;;;20.67;12.65;;;;;;;11.04;85.05;100237.66;10142433;29;20060;-81
2024/03/14 07:18:18;;;;;;;11.77;7.90;;;;;;;11.10;84.67;100242.50;10142256;29;21216;-82
2024/03/14 07:23:21;;;;;;;20.17;11.82;;;;;;;11.14;84.34;100251.22;10145758;29;21607;-81
2024/03/14 07:28:26;;;;;;;15.25;11.40;;;;;;;11.04;84.36;100251.09;10153742;29;20048;-80
2024/03/14 07:33:29;;;;;;;25.25;12.68;;;;;;;11.21;83.39;100260.44;10181573;29;20143;-81
2024/03/14 07:38:34;;;;;;;15.90;11.48;;;;;;;11.36;83.13;100256.44;10149884;29;20196;-81
2024/03/14 07:43:37;;;;;;;17.55;11.77;;;;;;;11.39;82.30;100258.00;10137287;29;20059;-80
2024/03/14 07:48:41;;;;;;;21.38;13.65;;;;;;;11.42;82.44;100263.97;10142027;29;20056;-80
2024/03/14 07:53:46;;;;;;;19.13;11.82;;;;;;;11.47;81.86;100261.72;10132029;29;20055;-80
2024/03/14 07:58:51;;;;;;;17.13;11.35;;;;;;;11.54;81.39;100263.88;10171389;29;20063;-79
2024/03/14 08:09:57;;;;;;;16.67;11.60;;;;;;;12.32;77.46;100265.91;10250920;28;19938;-80
2024/03/14 08:15:11;;;;;;;16.23;10.68;;;;;;;12.72;74.61;100264.09;10228321;28;20049;-79
2024/03/14 08:20:16;;;;;;;18.65;11.80;;;;;;;12.44;74.76;100269.34;10268736;28;20049;-81
2024/03/14 08:25:19;;;;;;;16.67;11.18;;;;;;;13.03;72.51;100272.94;10300910;28;20113;-82
2024/03/14 08:30:23;;;;;;;17.13;10.80;;;;;;;12.83;71.67;100278.31;10258193;28;20497;-82
2024/03/14 08:35:26;;;;;;;14.70;9.90;;;;;;;13.24;70.55;100260.09;10277495;28;20117;-83
2024/03/14 08:40:29;;;;;;;14.57;10.73;;;;;;;13.64;70.01;100269.84;10259132;28;20094;-83
2024/03/14 08:45:35;;;;;;;13.98;10.07;;;;;;;13.91;69.00;100265.50;10267606;28;20053;-80
2024/03/14 08:50:40;;;;;;;15.90;9.55;;;;;;;13.53;68.97;100261.09;10274901;28;20106;-82
2024/03/14 08:55:52;;;;;;;15.40;10.55;;;;;;;13.49;70.15;100265.91;10264102;28;20035;-84
2024/03/14 09:00:56;;;;;;;13.88;10.57;;;;;;;13.28;70.62;100274.16;10268685;28;20074;-83
2024/03/14 09:05:59;;;;;;;17.10;10.25;;;;;;;13.56;69.59;100260.78;10244700;28;20075;-83
2024/03/14 09:11:03;;;;;;;13.80;9.93;;;;;;;13.17;70.24;100255.44;10230686;28;20046;-80
2024/03/14 09:16:06;;;;;;;17.90;10.88;;;;;;;14.33;65.59;100251.47;10216724;29;20047;-82
2024/03/14 09:21:09;;;;;;;14.18;9.88;;;;;;;13.90;66.23;100253.84;10229570;28;20509;-82
2024/03/14 09:26:12;;;;;;;14.82;10.45;;;;;;;13.92;67.09;100245.56;10221655;28;20058;-81
2024/03/14 09:31:17;;;;;;;14.07;11.07;;;;;;;13.77;66.99;100260.56;10235866;28;20058;-79
2024/03/14 09:36:20;;;;;;;16.23;10.63;;;;;;;13.55;67.36;100265.34;10258969;28;20062;-80
2024/03/14 09:41:26;;;;;;;16.00;12.07;;;;;;;13.74;67.49;100256.31;10259576;28;20051;-80
2024/03/14 09:46:30;;;;;;;16.88;11.30;;;;;;;13.94;65.90;100249.84;10245690;28;20108;-81
2024/03/14 09:51:33;;;;;;;13.73;11.07;;;;;;;14.78;63.60;100239.78;10254274;28;20056;-80
2024/03/14 09:56:38;;;;;;;13.90;10.45;;;;;;;13.92;64.97;100242.88;10226018;28;20241;-82
2024/03/14 10:01:44;;;;;;;12.82;11.23;;;;;;;14.46;65.10;100235.75;10243694;28;20190;-81
2024/03/14 10:06:48;;;;;;;14.65;11.40;;;;;;;14.32;65.04;100233.56;10227854;28;20663;-81
2024/03/14 10:11:53;;;;;;;16.08;11.43;;;;;;;15.11;61.63;100231.94;10249654;28;20069;-82
2024/03/14 10:16:56;;;;;;;13.05;10.48;;;;;;;15.18;60.05;100227.59;10244295;28;20050;-83
2024/03/14 10:22:01;;;;;;;12.35;10.18;;;;;;;14.70;62.60;100224.34;10256824;28;20047;-82
2024/03/14 10:27:04;;;;;;;13.85;10.20;;;;;;;15.15;61.52;100212.53;10238338;28;20420;-84
2024/03/14 10:32:10;;;;;;;14.27;10.57;;;;;;;14.97;61.40;100198.19;10240653;28;20137;-82
2024/03/14 10:37:14;;;;;;;11.60;10.40;;;;;;;15.26;60.86;100203.31;10229270;28;20069;-84
2024/03/14 10:42:17;;;;;;;11.88;9.75;;;;;;;16.49;56.13;100193.00;10239788;28;20053;-82
2024/03/14 10:47:20;;;;;;;16.33;10.20;;;;;;;16.91;54.32;100200.16;10226719;28;20158;-82
2024/03/14 10:52:23;;;;;;;10.10;8.80;;;;;;;16.27;55.63;100194.50;10243716;28;20051;-82
2024/03/14 10:57:28;;;;;;;14.23;9.85;;;;;;;15.68;58.14;100191.72;10232983;28;20061;-81
2024/03/14 11:02:32;;;;;;;13.45;10.52;;;;;;;15.88;56.98;100197.75;10229190;28;20149;-82
2024/03/14 11:07:35;;;;;;;12.32;9.40;;;;;;;15.11;58.65;100191.34;10230612;28;20069;-83
2024/03/14 11:12:38;;;;;;;10.52;9.07;;;;;;;16.91;53.23;100181.16;10256183;28;20398;-81
2024/03/14 11:17:42;;;;;;;11.95;10.13;;;;;;;18.56;49.76;100169.47;10240851;28;20047;-82
2024/03/14 11:22:47;;;;;;;11.25;8.82;;;;;;;19.02;46.76;100172.19;10242414;28;20055;-83
2024/03/14 11:27:50;;;;;;;10.20;7.72;;;;;;;18.88;45.91;100170.28;10256806;28;20193;-82
2024/03/14 11:32:55;;;;;;;8.52;7.63;;;;;;;19.09;46.09;100166.84;10249130;28;20059;-81
2024/03/14 11:37:59;;;;;;;8.98;7.85;;;;;;;18.92;45.41;100169.72;10238165;28;20046;-82
2024/03/14 11:43:02;;;;;;;7.18;5.85;;;;;;;18.64;44.99;100174.03;10251063;28;20834;-82
2024/03/14 11:48:08;;;;;;;9.70;7.45;;;;;;;17.71;47.43;100151.28;10225369;28;20113;-84
2024/03/14 11:53:12;;;;;;;9.63;7.90;;;;;;;17.53;48.89;100146.09;10248067;28;20862;-83
2024/03/14 11:58:15;;;;;;;9.77;8.77;;;;;;;19.09;46.69;100139.63;10219332;28;20055;-84
2024/03/14 12:03:22;;;;;;;9.68;8.05;;;;;;;19.19;44.92;100132.88;10255219;28;21147;-83
2024/03/14 12:08:25;;;;;;;9.55;8.45;;;;;;;20.24;43.80;100117.22;10236950;28;20063;-82
2024/03/14 12:13:28;;;;;;;9.43;8.02;;;;;;;19.76;44.06;100125.94;10227894;28;20066;-83
2024/03/14 12:18:32;;;;;;;8.10;7.30;;;;;;;18.68;45.15;100129.97;10259998;28;20153;-82
2024/03/14 12:23:35;;;;;;;10.88;7.80;;;;;;;19.72;44.47;100115.59;10232348;28;20051;-82
2024/03/14 12:28:38;;;;;;;11.25;7.80;;;;;;;19.58;44.34;100098.22;10231556;28;20057;-83
2024/03/14 12:33:44;;;;;;;10.02;7.05;;;;;;;19.22;45.53;100097.09;10231493;28;20189;-82
2024/03/14 12:38:51;;;;;;;7.82;6.78;;;;;;;19.27;44.25;100074.75;10229287;28;20129;-82
2024/03/14 12:43:55;;;;;;;7.28;6.35;;;;;;;19.64;44.76;100072.97;10223930;28;20721;-83
2024/03/14 12:48:59;;;;;;;9.38;5.70;;;;;;;18.24;45.37;100080.84;10245882;28;20078;-83
2024/03/14 12:54:03;;;;;;;6.32;5.50;;;;;;;19.28;43.87;100059.25;10231379;28;20043;-82
2024/03/14 12:59:08;;;;;;;6.03;5.43;;;;;;;20.31;42.09;100059.00;10216291;28;20555;-82
2024/03/14 13:04:17;;;;;;;6.15;5.05;;;;;;;21.16;39.73;100053.56;10215600;28;20046;-82
2024/03/14 13:09:24;;;;;;;6.65;5.00;;;;;;;19.70;42.08;100044.94;10235204;28;20055;-82
2024/03/14 13:14:27;;;;;;;7.32;5.38;;;;;;;20.49;41.58;100039.47;10214676;28;20069;-82
2024/03/14 13:19:32;;;;;;;5.78;5.18;;;;;;;21.70;38.31;100021.84;10290582;28;20113;-81
2024/03/14 13:24:35;;;;;;;6.72;5.63;;;;;;;23.34;37.30;100024.78;10235634;28;20051;-83
2024/03/14 13:29:38;;;;;;;7.32;5.05;;;;;;;23.07;36.47;100010.31;10270167;28;20093;-82
2024/03/14 13:34:43;;;;;;;6.25;5.18;;;;;;;22.91;37.21;100016.25;10272287;28;20042;-82
2024/03/14 13:39:47;;;;;;;6.00;5.40;;;;;;;23.09;36.33;99999.97;10280896;28;20051;-81
2024/03/14 13:44:51;;;;;;;6.78;4.47;;;;;;;21.00;39.61;100011.84;10236308;28;20078;-83
2024/03/14 13:49:56;;;;;;;5.38;4.88;;;;;;;21.37;39.38;99998.00;10251616;28;20051;-84
2024/03/14 13:55:01;;;;;;;5.60;5.10;;;;;;;21.88;37.92;99990.16;10249264;28;20053;-82
2024/03/14 14:00:11;;;;;;;6.78;4.93;;;;;;;19.57;41.28;99993.03;10256390;28;20114;-84
2024/03/14 14:05:20;;;;;;;6.63;5.07;;;;;;;20.42;40.93;99980.44;10227412;28;20043;-82
2024/03/14 14:10:24;;;;;;;5.53;4.68;;;;;;;23.13;36.88;99968.38;10250782;28;20690;-82
2024/03/14 14:15:28;;;;;;;6.22;5.18;;;;;;;24.20;35.18;99963.09;10257092;28;20062;-84
2024/03/14 14:20:32;;;;;;;6.95;4.47;;;;;;;23.33;36.85;99959.22;10247675;28;20046;-83
2024/03/14 14:25:35;;;;;;;4.63;4.22;;;;;;;25.38;33.16;99950.22;10240095;28;20051;-84
2024/03/14 14:30:41;;;;;;;5.25;4.30;;;;;;;24.72;33.70;99946.34;10234729;28;20142;-84
2024/03/14 14:35:45;;;;;;;5.22;4.72;;;;;;;24.18;34.49;99953.41;10255763;28;20046;-84
2024/03/14 14:40:49;;;;;;;7.07;4.97;;;;;;;25.22;33.53;99940.69;10231251;28;20078;-85
2024/03/14 14:45:55;;;;;;;6.32;4.93;;;;;;;25.95;32.70;99922.31;10242060;28;20053;-84
2024/03/14 14:51:00;;;;;;;4.97;4.43;;;;;;;26.18;31.88;99914.06;10237261;28;20054;-85
2024/03/14 14:56:14;;;;;;;5.53;4.32;;;;;;;24.91;33.41;99909.56;10269412;28;20131;-83
2024/03/14 15:01:18;;;;;;;6.10;4.97;;;;;;;22.73;35.42;99912.88;10244683;28;20098;-84
2024/03/14 15:06:21;;;;;;;4.20;3.80;;;;;;;21.66;37.97;99904.72;10247322;28;20050;-84
2024/03/14 15:11:25;;;;;;;4.55;4.15;;;;;;;21.44;37.71;99897.75;10243129;28;20063;-84
2024/03/14 15:16:28;;;;;;;3.90;3.60;;;;;;;20.41;38.40;99899.66;10256846;28;20137;-83
2024/03/14 15:21:32;;;;;;;4.57;3.75;;;;;;;20.61;38.21;99897.88;10239077;28;20047;-84
2024/03/14 15:26:37;;;;;;;4.28;3.83;;;;;;;20.78;38.21;99879.25;10252553;28;20044;-82
2024/03/14 15:31:40;;;;;;;4.20;3.58;;;;;;;20.23;38.99;99872.84;10234214;28;20051;-84
2024/03/14 15:36:43;;;;;;;3.83;3.42;;;;;;;20.17;38.60;99870.94;10231664;28;20074;-83
2024/03/14 15:41:46;;;;;;;3.55;3.25;;;;;;;19.62;39.91;99857.09;10222861;28;20046;-82
2024/03/14 15:46:51;;;;;;;6.28;3.88;;;;;;;19.46;40.25;99853.56;10246828;28;20163;-83
2024/03/14 15:51:54;;;;;;;7.30;4.00;;;;;;;19.05;41.53;99847.91;10241909;28;20062;-84
2024/03/14 15:56:57;;;;;;;3.65;3.33;;;;;;;18.79;42.34;99843.03;10215835;28;20082;-82
2024/03/14 16:02:00;;;;;;;7.05;3.55;;;;;;;19.20;41.36;99840.53;10231137;28;20962;-83
2024/03/14 16:07:06;;;;;;;4.32;3.35;;;;;;;18.76;41.60;99843.38;10250171;28;20046;-83
2024/03/14 16:12:09;;;;;;;5.30;3.72;;;;;;;18.38;42.69;99831.81;10245527;28;20055;-84
2024/03/14 16:17:13;;;;;;;4.43;3.28;;;;;;;18.31;43.05;99832.53;10232522;28;20047;-84
2024/03/14 16:22:18;;;;;;;4.70;2.83;;;;;;;18.11;43.19;99839.59;10214328;28;20132;-82
2024/03/14 16:27:21;;;;;;;4.72;3.58;;;;;;;17.66;44.11;99830.47;10215363;28;20078;-82
2024/03/14 16:32:26;;;;;;;5.00;3.85;;;;;;;17.57;44.63;99828.88;10243458;28;20595;-84
2024/03/14 16:37:30;;;;;;;3.97;3.35;;;;;;;17.61;44.83;99820.19;10241147;28;20089;-81
2024/03/14 16:42:35;;;;;;;5.15;4.00;;;;;;;17.53;45.28;99820.25;10242690;28;20091;-84
2024/03/14 16:47:41;;;;;;;9.00;5.25;;;;;;;17.38;45.87;99827.50;10245569;28;20469;-83
2024/03/14 16:52:44;;;;;;;16.00;9.80;;;;;;;17.22;46.24;99825.75;10219595;28;20194;-83
2024/03/14 16:57:47;;;;;;;25.85;16.63;;;;;;;17.06;46.97;99828.56;10224000;28;20452;-84
2024/03/14 17:02:51;;;;;;;27.83;18.40;;;;;;;16.85;47.84;99834.66;10222746;28;20042;-83
2024/03/14 17:07:54;;;;;;;23.40;16.90;;;;;;;16.69;48.79;99831.00;10246304;28;20055;-84
2024/03/14 17:12:57;;;;;;;6.32;4.97;;;;;;;16.47;51.00;99829.06;10241389;28;20051;-84
2024/03/14 17:18:00;;;;;;;10.65;6.10;;;;;;;16.30;53.75;99814.75;10224358;28;20065;-82
2024/03/14 17:23:04;;;;;;;9.38;6.63;;;;;;;16.10;56.06;99817.00;10236010;28;20047;-83
2024/03/14 17:28:07;;;;;;;7.78;6.35;;;;;;;15.91;57.02;99827.19;10242821;28;20047;-82
2024/03/14 17:33:10;;;;;;;7.95;5.80;;;;;;;15.74;58.55;99822.81;10269247;28;20046;-84
2024/03/14 17:38:13;;;;;;;5.22;4.72;;;;;;;15.60;59.99;99820.78;10229434;28;20063;-80
2024/03/14 17:43:17;;;;;;;5.80;5.13;;;;;;;15.54;60.31;99814.19;10259138;28;20061;-83
2024/03/14 17:48:20;;;;;;;5.90;5.32;;;;;;;15.54;59.88;99794.41;10220094;28;20185;-82
2024/03/14 17:53:23;;;;;;;7.78;5.82;;;;;;;15.35;60.37;99801.03;10228429;28;20043;-81
2024/03/14 17:58:26;;;;;;;7.32;4.97;;;;;;;15.31;60.12;99808.63;10234682;28;20065;-80
2024/03/14 18:03:31;;;;;;;7.00;5.53;;;;;;;15.26;60.31;99813.69;10221912;28;20059;-80
2024/03/14 18:09:25;;;;;;;7.75;5.20;;;;;;;15.16;60.42;99818.41;11388929;23;20050;-80
2024/03/14 18:14:29;;;;;;;9.02;4.90;;;;;;;15.09;60.35;99807.41;10309419;28;20105;-80
2024/03/14 18:19:32;;;;;;;7.63;4.90;;;;;;;15.02;60.44;99811.78;10288156;28;20110;-79
2024/03/14 18:24:36;;;;;;;12.27;6.82;;;;;;;14.96;60.81;99821.44;10288257;28;20090;-82
2024/03/14 18:29:39;;;;;;;8.40;5.70;;;;;;;14.88;61.51;99816.00;10258785;28;20043;-81
2024/03/14 18:34:42;;;;;;;10.60;5.90;;;;;;;14.87;61.72;99818.88;10280376;28;20043;-81
2024/03/14 18:39:45;;;;;;;13.07;7.65;;;;;;;14.80;62.44;99811.41;10282799;28;20046;-81
2024/03/14 18:44:50;;;;;;;6.45;5.82;;;;;;;14.64;63.35;99814.06;10275957;28;20057;-80
2024/03/14 18:49:53;;;;;;;6.72;6.03;;;;;;;14.50;64.09;99801.19;10282028;28;20049;-82
2024/03/14 18:54:58;;;;;;;9.80;5.97;;;;;;;14.46;64.23;99794.44;10273723;28;20093;-81
2024/03/14 19:00:01;;;;;;;9.38;6.15;;;;;;;14.35;64.96;99791.00;10287399;28;20047;-81
2024/03/14 19:05:06;;;;;;;13.32;7.60;;;;;;;14.40;64.63;99808.59;10289059;28;20047;-79
2024/03/14 19:10:09;;;;;;;10.40;6.68;;;;;;;14.39;64.30;99799.63;10269393;28;20596;-82
2024/03/14 19:15:12;;;;;;;13.93;5.82;;;;;;;14.32;64.23;99799.44;10259767;28;20051;-81
2024/03/14 19:20:15;;;;;;;10.00;5.95;;;;;;;14.35;64.48;99809.06;10269255;28;20057;-82
2024/03/14 19:25:19;;;;;;;9.75;6.05;;;;;;;14.26;64.47;99796.50;10296446;28;20433;-81
2024/03/14 19:30:25;;;;;;;10.38;6.03;;;;;;;14.14;64.97;99801.38;10301799;28;20473;-81
2024/03/14 19:35:31;;;;;;;8.35;6.28;;;;;;;14.09;65.68;99792.91;10298893;28;20038;-80
2024/03/14 19:40:36;;;;;;;12.93;6.07;;;;;;;14.03;65.97;99804.34;10294470;28;20119;-81
2024/03/14 19:45:39;;;;;;;15.27;6.53;;;;;;;14.00;66.01;99791.19;10286615;28;20049;-81
2024/03/14 19:50:43;;;;;;;11.15;6.85;;;;;;;13.90;66.71;99791.28;10265211;28;20072;-81
2024/03/14 19:55:46;;;;;;;9.05;7.00;;;;;;;13.76;67.54;99799.97;10266081;28;20540;-81
2024/03/14 20:00:50;;;;;;;11.38;7.53;;;;;;;13.70;67.88;99791.50;10262257;28;20049;-81
2024/03/14 20:05:53;;;;;;;14.15;9.02;;;;;;;13.81;67.66;99778.75;10270090;28;20133;-81
2024/03/14 20:10:57;;;;;;;10.25;7.78;;;;;;;13.70;68.27;99786.09;10288542;28;20039;-81
2024/03/14 20:16:03;;;;;;;11.32;8.18;;;;;;;13.65;68.75;99788.44;10256941;28;20050;-82
2024/03/14 20:21:07;;;;;;;9.35;8.35;;;;;;;13.53;69.74;99780.78;10274723;28;20054;-80
2024/03/14 20:26:11;;;;;;;12.23;8.75;;;;;;;13.54;69.86;99790.56;10260396;28;20123;-80
2024/03/14 20:31:15;;;;;;;15.90;8.45;;;;;;;13.49;69.94;99789.19;10256100;28;20414;-81
2024/03/14 20:36:18;;;;;;;11.35;8.23;;;;;;;13.48;69.93;99783.94;10276799;28;20054;-81
2024/03/14 20:41:23;;;;;;;12.82;9.13;;;;;;;13.40;70.26;99782.03;10279829;28;20054;-81
2024/03/14 20:46:26;;;;;;;14.32;8.88;;;;;;;13.45;70.07;99777.00;10268276;28;20047;-80
2024/03/14 20:51:29;;;;;;;15.23;9.63;;;;;;;13.44;70.11;99775.31;10275189;28;20038;-80
2024/03/14 20:56:32;;;;;;;13.57;9.43;;;;;;;13.35;70.24;99767.28;10264786;28;20121;-81
2024/03/14 21:01:35;;;;;;;15.25;9.85;;;;;;;13.37;70.50;99770.72;10277720;28;20042;-81
2024/03/14 21:06:38;;;;;;;13.00;9.68;;;;;;;13.37;70.37;99770.72;10270818;28;20057;-81
2024/03/14 21:11:41;;;;;;;12.23;9.38;;;;;;;13.33;70.45;99771.97;10278624;28;21239;-81
2024/03/14 21:16:45;;;;;;;13.05;9.85;;;;;;;13.15;71.18;99767.47;10266269;28;20413;-81
2024/03/14 21:21:48;;;;;;;13.73;11.30;;;;;;;13.27;70.44;99770.75;10262084;28;20050;-79
2024/03/14 21:26:51;;;;;;;14.45;9.82;;;;;;;13.12;71.32;99775.03;10287759;28;20107;-80
2024/03/14 21:31:54;;;;;;;14.93;10.02;;;;;;;13.07;71.57;99766.56;10275689;28;20039;-79
2024/03/14 21:36:57;;;;;;;13.93;10.07;;;;;;;13.00;71.71;99769.88;10279873;28;20046;-80
2024/03/14 21:42:00;;;;;;;15.93;9.60;;;;;;;12.91;72.10;99762.72;10275845;28;20047;-79
2024/03/14 21:47:03;;;;;;;14.93;10.82;;;;;;;12.79;72.24;99754.03;10287380;28;20465;-80
2024/03/14 21:52:09;;;;;;;15.65;11.75;;;;;;;12.68;72.77;99751.56;10259276;28;20053;-81
2024/03/14 21:57:12;;;;;;;16.63;11.02;;;;;;;12.58;73.73;99753.47;10266672;28;20536;-80
2024/03/14 22:02:18;;;;;;;18.98;13.93;;;;;;;12.59;73.52;99750.63;10258484;28;20050;-80
2024/03/14 22:07:22;;;;;;;21.23;15.50;;;;;;;12.60;73.82;99738.84;10261022;28;20808;-80
2024/03/14 22:12:25;;;;;;;21.98;15.23;;;;;;;12.57;73.66;99741.84;10284885;28;20042;-80
2024/03/14 22:17:28;;;;;;;21.63;14.57;;;;;;;12.56;73.90;99733.91;10280355;28;20066;-81
2024/03/14 22:22:32;;;;;;;15.65;13.18;;;;;;;12.54;73.69;99717.91;10284167;28;20035;-80
2024/03/14 22:27:35;;;;;;;18.77;13.02;;;;;;;12.53;73.64;99718.94;10279006;28;20055;-79
2024/03/14 22:32:38;;;;;;;15.88;12.43;;;;;;;12.63;72.94;99715.31;10260357;28;20489;-80
2024/03/14 22:37:41;;;;;;;19.35;13.07;;;;;;;12.65;72.82;99713.31;10289297;28;20047;-78
2024/03/14 22:42:44;;;;;;;15.13;12.32;;;;;;;12.66;72.77;99718.53;10301356;28;20099;-79
2024/03/14 22:47:48;;;;;;;14.82;11.77;;;;;;;12.63;72.75;99718.00;10275757;28;20077;-80
2024/03/14 22:52:51;;;;;;;16.10;12.52;;;;;;;12.65;72.53;99711.44;10285095;28;20046;-80
2024/03/14 22:57:55;;;;;;;16.90;11.77;;;;;;;12.67;72.41;99705.88;10281488;28;20187;-79
2024/03/14 23:02:58;;;;;;;17.45;12.18;;;;;;;12.67;72.52;99708.59;10278743;28;20051;-80
2024/03/14 23:08:01;;;;;;;17.75;12.95;;;;;;;12.68;72.18;99689.59;10278168;28;20433;-80
2024/03/14 23:13:04;;;;;;;18.00;13.30;;;;;;;12.63;72.39;99694.59;10279599;28;20043;-80